sensor_id;sensor_type;location;lat;lon;timestamp;temperature;humidity
27619;DHT22;15039;50.830;4.730;2023-08-21T00:00:44;21.20;99.90
27619;DHT22;15039;50.830;4.730;2023-08-21T00:03:10;20.90;99.90
27619;DHT22;15039;50.830;4.730;2023-08-21T00:05:36;20.90;99.90
27619;DHT22;15039;50.830;4.730;2023-08-21T00:08:02;20.90;99.90
27619;DHT22;15039;50.830;4.730;2023-08-21T00:10:30;21.00;99.90
27619;DHT22;15039;50.830;4.730;2023-08-21T00:12:55;21.20;99.90
27619;DHT22;15039;50.830;4.730;2023-08-21T00:15:23;21.20;99.90
27619;DHT22;15039;50.830;4.730;2023-08-21T00:17:49;20.90;99.90
27619;DHT22;15039;50.830;4.730;2023-08-21T00:20:15;20.90;99.90
27619;DHT22;15039;50.830;4.730;2023-08-21T00:22:41;20.80;99.90
27619;DHT22;15039;50.830;4.730;2023-08-21T00:25:07;20.90;99.90
27619;DHT22;15039;50.830;4.730;2023-08-21T00:27:32;20.80;99.90
27619;DHT22;15039;50.830;4.730;2023-08-21T00:29:59;20.60;99.90
27619;DHT22;15039;50.830;4.730;2023-08-21T00:32:25;20.70;99.90
27619;DHT22;15039;50.830;4.730;2023-08-21T00:34:51;20.70;99.90
27619;DHT22;15039;50.830;4.730;2023-08-21T00:37:16;20.40;99.90
27619;DHT22;15039;50.830;4.730;2023-08-21T00:39:42;20.50;99.90
27619;DHT22;15039;50.830;4.730;2023-08-21T00:42:08;20.60;99.90
27619;DHT22;15039;50.830;4.730;2023-08-21T00:44:33;20.70;99.90
27619;DHT22;15039;50.830;4.730;2023-08-21T00:46:59;20.90;99.90
27619;DHT22;15039;50.830;4.730;2023-08-21T00:49:25;21.00;99.90
27619;DHT22;15039;50.830;4.730;2023-08-21T00:51:52;20.90;99.90
27619;DHT22;15039;50.830;4.730;2023-08-21T00:54:19;20.80;99.90
27619;DHT22;15039;50.830;4.730;2023-08-21T00:56:45;20.70;99.90
27619;DHT22;15039;50.830;4.730;2023-08-21T00:59:11;20.70;99.90
27619;DHT22;15039;50.830;4.730;2023-08-21T01:01:38;20.60;99.90
27619;DHT22;15039;50.830;4.730;2023-08-21T01:04:03;20.50;99.90
27619;DHT22;15039;50.830;4.730;2023-08-21T01:06:29;20.50;99.90
27619;DHT22;15039;50.830;4.730;2023-08-21T01:11:39;20.40;99.90
27619;DHT22;15039;50.830;4.730;2023-08-21T01:14:24;20.50;99.90
27619;DHT22;15039;50.830;4.730;2023-08-21T01:16:56;20.50;99.90
27619;DHT22;15039;50.830;4.730;2023-08-21T01:22:00;20.50;99.90
27619;DHT22;15039;50.830;4.730;2023-08-21T01:24:26;20.50;99.90
27619;DHT22;15039;50.830;4.730;2023-08-21T01:26:51;20.40;99.90
27619;DHT22;15039;50.830;4.730;2023-08-21T01:29:17;20.40;99.90
27619;DHT22;15039;50.830;4.730;2023-08-21T01:31:47;20.50;99.90
27619;DHT22;15039;50.830;4.730;2023-08-21T01:34:16;20.40;99.90
27619;DHT22;15039;50.830;4.730;2023-08-21T01:36:43;20.30;99.90
27619;DHT22;15039;50.830;4.730;2023-08-21T01:39:09;20.10;99.90
27619;DHT22;15039;50.830;4.730;2023-08-21T01:41:35;19.90;99.90
27619;DHT22;15039;50.830;4.730;2023-08-21T01:44:00;19.80;99.90
27619;DHT22;15039;50.830;4.730;2023-08-21T01:46:26;19.90;99.90
27619;DHT22;15039;50.830;4.730;2023-08-21T01:48:52;20.00;99.90
27619;DHT22;15039;50.830;4.730;2023-08-21T01:51:17;20.20;99.90
27619;DHT22;15039;50.830;4.730;2023-08-21T01:53:43;20.20;99.90
27619;DHT22;15039;50.830;4.730;2023-08-21T01:56:09;20.10;99.90
27619;DHT22;15039;50.830;4.730;2023-08-21T01:58:34;20.00;99.90
27619;DHT22;15039;50.830;4.730;2023-08-21T02:01:00;20.00;99.90
27619;DHT22;15039;50.830;4.730;2023-08-21T02:03:26;19.90;99.90
27619;DHT22;15039;50.830;4.730;2023-08-21T02:05:56;20.00;99.90
27619;DHT22;15039;50.830;4.730;2023-08-21T02:08:32;20.20;99.90
27619;DHT22;15039;50.830;4.730;2023-08-21T02:10:58;20.20;99.90
27619;DHT22;15039;50.830;4.730;2023-08-21T02:13:24;20.30;99.90
27619;DHT22;15039;50.830;4.730;2023-08-21T02:15:49;20.30;99.90
27619;DHT22;15039;50.830;4.730;2023-08-21T02:18:15;20.20;99.90
27619;DHT22;15039;50.830;4.730;2023-08-21T02:20:42;20.00;99.90
27619;DHT22;15039;50.830;4.730;2023-08-21T02:23:07;19.70;99.90
27619;DHT22;15039;50.830;4.730;2023-08-21T02:25:33;19.60;99.90
27619;DHT22;15039;50.830;4.730;2023-08-21T02:27:59;19.40;99.90
27619;DHT22;15039;50.830;4.730;2023-08-21T02:30:25;19.40;99.90
27619;DHT22;15039;50.830;4.730;2023-08-21T02:32:52;19.40;99.90
27619;DHT22;15039;50.830;4.730;2023-08-21T02:35:17;19.40;99.90
27619;DHT22;15039;50.830;4.730;2023-08-21T02:37:43;19.40;99.90
27619;DHT22;15039;50.830;4.730;2023-08-21T02:40:09;19.40;99.90
27619;DHT22;15039;50.830;4.730;2023-08-21T02:42:35;19.40;99.90
27619;DHT22;15039;50.830;4.730;2023-08-21T02:45:02;19.40;99.90
27619;DHT22;15039;50.830;4.730;2023-08-21T02:47:29;19.30;99.90
27619;DHT22;15039;50.830;4.730;2023-08-21T02:49:55;19.20;99.90
27619;DHT22;15039;50.830;4.730;2023-08-21T02:52:21;19.30;99.90
27619;DHT22;15039;50.830;4.730;2023-08-21T02:54:46;19.20;99.90
27619;DHT22;15039;50.830;4.730;2023-08-21T02:57:12;19.20;99.90
27619;DHT22;15039;50.830;4.730;2023-08-21T02:59:38;19.20;99.90
27619;DHT22;15039;50.830;4.730;2023-08-21T03:02:03;19.30;99.90
27619;DHT22;15039;50.830;4.730;2023-08-21T03:04:29;19.20;99.90
27619;DHT22;15039;50.830;4.730;2023-08-21T03:06:54;19.30;99.90
27619;DHT22;15039;50.830;4.730;2023-08-21T03:09:20;19.30;99.90
27619;DHT22;15039;50.830;4.730;2023-08-21T03:11:46;19.40;99.90
27619;DHT22;15039;50.830;4.730;2023-08-21T03:14:11;19.20;99.90
27619;DHT22;15039;50.830;4.730;2023-08-21T03:16:37;19.40;99.90
27619;DHT22;15039;50.830;4.730;2023-08-21T03:19:03;19.30;99.90
27619;DHT22;15039;50.830;4.730;2023-08-21T03:21:28;19.40;99.90
27619;DHT22;15039;50.830;4.730;2023-08-21T03:23:58;19.40;99.90
27619;DHT22;15039;50.830;4.730;2023-08-21T03:26:25;19.40;99.90
27619;DHT22;15039;50.830;4.730;2023-08-21T03:28:51;19.40;99.90
27619;DHT22;15039;50.830;4.730;2023-08-21T03:31:16;19.30;99.90
27619;DHT22;15039;50.830;4.730;2023-08-21T03:33:42;19.20;99.90
27619;DHT22;15039;50.830;4.730;2023-08-21T03:36:08;19.20;99.90
27619;DHT22;15039;50.830;4.730;2023-08-21T03:38:34;19.30;99.90
27619;DHT22;15039;50.830;4.730;2023-08-21T03:41:00;19.30;99.90
27619;DHT22;15039;50.830;4.730;2023-08-21T03:43:26;19.20;99.90
27619;DHT22;15039;50.830;4.730;2023-08-21T03:45:51;19.20;99.90
27619;DHT22;15039;50.830;4.730;2023-08-21T03:48:17;19.30;99.90
27619;DHT22;15039;50.830;4.730;2023-08-21T03:50:43;19.30;99.90
27619;DHT22;15039;50.830;4.730;2023-08-21T03:53:08;19.20;99.90
27619;DHT22;15039;50.830;4.730;2023-08-21T03:55:34;19.10;99.90
27619;DHT22;15039;50.830;4.730;2023-08-21T03:58:01;19.00;99.90
27619;DHT22;15039;50.830;4.730;2023-08-21T04:00:26;19.00;99.90
27619;DHT22;15039;50.830;4.730;2023-08-21T04:02:52;18.90;99.90
27619;DHT22;15039;50.830;4.730;2023-08-21T04:05:17;18.90;99.90
27619;DHT22;15039;50.830;4.730;2023-08-21T04:07:43;18.80;99.90
27619;DHT22;15039;50.830;4.730;2023-08-21T04:10:09;18.80;99.90
27619;DHT22;15039;50.830;4.730;2023-08-21T04:12:35;18.90;99.90
27619;DHT22;15039;50.830;4.730;2023-08-21T04:15:00;19.00;99.90
27619;DHT22;15039;50.830;4.730;2023-08-21T04:17:26;18.80;99.90
27619;DHT22;15039;50.830;4.730;2023-08-21T04:19:52;18.80;99.90
27619;DHT22;15039;50.830;4.730;2023-08-21T04:22:17;18.70;99.90
27619;DHT22;15039;50.830;4.730;2023-08-21T04:24:44;18.60;99.90
27619;DHT22;15039;50.830;4.730;2023-08-21T04:27:09;18.60;99.90
27619;DHT22;15039;50.830;4.730;2023-08-21T04:29:35;18.60;99.90
27619;DHT22;15039;50.830;4.730;2023-08-21T04:32:01;18.60;99.90
27619;DHT22;15039;50.830;4.730;2023-08-21T04:34:27;18.60;99.90
27619;DHT22;15039;50.830;4.730;2023-08-21T04:36:52;18.50;99.90
27619;DHT22;15039;50.830;4.730;2023-08-21T04:39:18;18.50;99.90
27619;DHT22;15039;50.830;4.730;2023-08-21T04:41:44;18.50;99.90
27619;DHT22;15039;50.830;4.730;2023-08-21T04:44:09;18.50;99.90
27619;DHT22;15039;50.830;4.730;2023-08-21T04:46:35;18.50;99.90
27619;DHT22;15039;50.830;4.730;2023-08-21T04:49:01;18.50;99.90
27619;DHT22;15039;50.830;4.730;2023-08-21T04:51:27;18.50;99.90
27619;DHT22;15039;50.830;4.730;2023-08-21T04:53:52;18.40;99.90
27619;DHT22;15039;50.830;4.730;2023-08-21T04:56:18;18.40;99.90
27619;DHT22;15039;50.830;4.730;2023-08-21T04:58:43;18.40;99.90
27619;DHT22;15039;50.830;4.730;2023-08-21T05:01:09;18.50;99.90
27619;DHT22;15039;50.830;4.730;2023-08-21T05:03:35;18.50;99.90
27619;DHT22;15039;50.830;4.730;2023-08-21T05:06:01;18.50;99.90
27619;DHT22;15039;50.830;4.730;2023-08-21T05:08:26;18.50;99.90
27619;DHT22;15039;50.830;4.730;2023-08-21T05:10:56;18.60;99.90
27619;DHT22;15039;50.830;4.730;2023-08-21T05:13:22;18.60;99.90
27619;DHT22;15039;50.830;4.730;2023-08-21T05:15:55;18.70;99.90
27619;DHT22;15039;50.830;4.730;2023-08-21T05:18:21;18.70;99.90
27619;DHT22;15039;50.830;4.730;2023-08-21T05:20:48;18.80;99.90
27619;DHT22;15039;50.830;4.730;2023-08-21T05:23:14;18.80;99.90
27619;DHT22;15039;50.830;4.730;2023-08-21T05:25:40;18.80;99.90
27619;DHT22;15039;50.830;4.730;2023-08-21T05:28:06;18.80;99.90
27619;DHT22;15039;50.830;4.730;2023-08-21T05:30:32;19.00;99.90
27619;DHT22;15039;50.830;4.730;2023-08-21T05:32:58;19.00;99.90
27619;DHT22;15039;50.830;4.730;2023-08-21T05:35:24;19.00;99.90
27619;DHT22;15039;50.830;4.730;2023-08-21T05:37:49;19.00;99.90
27619;DHT22;15039;50.830;4.730;2023-08-21T05:40:15;19.10;99.90
27619;DHT22;15039;50.830;4.730;2023-08-21T05:42:40;19.20;99.90
27619;DHT22;15039;50.830;4.730;2023-08-21T05:45:06;19.20;99.90
27619;DHT22;15039;50.830;4.730;2023-08-21T05:47:32;19.30;99.90
27619;DHT22;15039;50.830;4.730;2023-08-21T05:49:58;19.20;99.90
27619;DHT22;15039;50.830;4.730;2023-08-21T05:52:23;19.30;99.90
27619;DHT22;15039;50.830;4.730;2023-08-21T05:54:49;19.30;99.90
27619;DHT22;15039;50.830;4.730;2023-08-21T05:57:15;19.40;99.90
27619;DHT22;15039;50.830;4.730;2023-08-21T05:59:45;19.50;99.90
27619;DHT22;15039;50.830;4.730;2023-08-21T06:02:11;19.60;99.90
27619;DHT22;15039;50.830;4.730;2023-08-21T06:04:41;19.70;99.90
27619;DHT22;15039;50.830;4.730;2023-08-21T06:07:07;19.70;99.90
27619;DHT22;15039;50.830;4.730;2023-08-21T06:09:33;19.70;99.90
27619;DHT22;15039;50.830;4.730;2023-08-21T06:12:05;19.80;99.90
27619;DHT22;15039;50.830;4.730;2023-08-21T06:14:31;20.00;99.90
27619;DHT22;15039;50.830;4.730;2023-08-21T06:17:00;20.20;99.90
27619;DHT22;15039;50.830;4.730;2023-08-21T06:19:27;20.20;99.90
27619;DHT22;15039;50.830;4.730;2023-08-21T06:21:54;20.20;99.90
27619;DHT22;15039;50.830;4.730;2023-08-21T06:24:21;20.30;99.90
27619;DHT22;15039;50.830;4.730;2023-08-21T06:26:47;20.20;99.90
27619;DHT22;15039;50.830;4.730;2023-08-21T06:29:13;20.30;99.90
27619;DHT22;15039;50.830;4.730;2023-08-21T06:31:40;20.50;99.90
27619;DHT22;15039;50.830;4.730;2023-08-21T06:34:06;20.60;99.90
27619;DHT22;15039;50.830;4.730;2023-08-21T06:36:31;20.50;99.90
27619;DHT22;15039;50.830;4.730;2023-08-21T06:38:57;20.40;99.90
27619;DHT22;15039;50.830;4.730;2023-08-21T06:41:23;20.40;99.90
27619;DHT22;15039;50.830;4.730;2023-08-21T06:43:50;20.50;99.90
27619;DHT22;15039;50.830;4.730;2023-08-21T06:46:16;20.50;99.90
27619;DHT22;15039;50.830;4.730;2023-08-21T06:48:43;20.70;99.90
27619;DHT22;15039;50.830;4.730;2023-08-21T06:51:09;20.80;99.90
27619;DHT22;15039;50.830;4.730;2023-08-21T06:53:37;20.80;99.90
27619;DHT22;15039;50.830;4.730;2023-08-21T06:56:03;20.90;99.90
27619;DHT22;15039;50.830;4.730;2023-08-21T06:58:30;20.90;99.90
27619;DHT22;15039;50.830;4.730;2023-08-21T07:01:00;21.00;99.90
27619;DHT22;15039;50.830;4.730;2023-08-21T07:03:26;21.00;99.90
27619;DHT22;15039;50.830;4.730;2023-08-21T07:05:59;21.30;99.90
27619;DHT22;15039;50.830;4.730;2023-08-21T07:11:37;21.40;99.90
27619;DHT22;15039;50.830;4.730;2023-08-21T07:19:14;21.50;99.90
27619;DHT22;15039;50.830;4.730;2023-08-21T07:21:42;21.50;99.90
27619;DHT22;15039;50.830;4.730;2023-08-21T07:24:31;21.60;99.90
27619;DHT22;15039;50.830;4.730;2023-08-21T07:27:32;21.80;99.90
27619;DHT22;15039;50.830;4.730;2023-08-21T07:30:47;21.90;99.90
27619;DHT22;15039;50.830;4.730;2023-08-21T07:33:55;21.90;99.90
27619;DHT22;15039;50.830;4.730;2023-08-21T07:39:13;21.70;99.90
27619;DHT22;15039;50.830;4.730;2023-08-21T07:41:38;21.80;99.90
27619;DHT22;15039;50.830;4.730;2023-08-21T07:44:04;22.00;99.90
27619;DHT22;15039;50.830;4.730;2023-08-21T07:46:30;22.00;99.90
27619;DHT22;15039;50.830;4.730;2023-08-21T07:48:55;22.00;99.90
27619;DHT22;15039;50.830;4.730;2023-08-21T07:51:22;22.20;99.90
27619;DHT22;15039;50.830;4.730;2023-08-21T07:53:48;22.50;99.90
27619;DHT22;15039;50.830;4.730;2023-08-21T07:56:14;22.40;99.90
27619;DHT22;15039;50.830;4.730;2023-08-21T07:58:40;22.40;99.90
27619;DHT22;15039;50.830;4.730;2023-08-21T08:01:06;22.60;99.90
27619;DHT22;15039;50.830;4.730;2023-08-21T08:03:31;22.50;99.90
27619;DHT22;15039;50.830;4.730;2023-08-21T08:05:57;22.80;99.90
27619;DHT22;15039;50.830;4.730;2023-08-21T08:08:23;22.80;99.90
27619;DHT22;15039;50.830;4.730;2023-08-21T08:10:49;22.90;99.90
27619;DHT22;15039;50.830;4.730;2023-08-21T08:13:15;22.90;99.90
27619;DHT22;15039;50.830;4.730;2023-08-21T08:15:41;22.80;99.90
27619;DHT22;15039;50.830;4.730;2023-08-21T08:18:11;22.80;99.90
27619;DHT22;15039;50.830;4.730;2023-08-21T08:20:36;22.90;99.90
27619;DHT22;15039;50.830;4.730;2023-08-21T08:23:02;23.00;99.90
27619;DHT22;15039;50.830;4.730;2023-08-21T08:25:28;23.10;99.90
27619;DHT22;15039;50.830;4.730;2023-08-21T08:27:54;23.00;99.90
27619;DHT22;15039;50.830;4.730;2023-08-21T08:30:19;23.00;99.90
27619;DHT22;15039;50.830;4.730;2023-08-21T08:32:45;23.20;99.90
27619;DHT22;15039;50.830;4.730;2023-08-21T08:35:14;23.40;99.90
27619;DHT22;15039;50.830;4.730;2023-08-21T08:37:41;23.60;99.90
27619;DHT22;15039;50.830;4.730;2023-08-21T08:40:08;23.80;99.90
27619;DHT22;15039;50.830;4.730;2023-08-21T08:42:35;23.70;99.90
27619;DHT22;15039;50.830;4.730;2023-08-21T08:45:03;23.60;99.90
27619;DHT22;15039;50.830;4.730;2023-08-21T08:47:34;23.80;99.90
27619;DHT22;15039;50.830;4.730;2023-08-21T08:50:05;23.90;99.90
27619;DHT22;15039;50.830;4.730;2023-08-21T08:52:34;23.90;99.90
27619;DHT22;15039;50.830;4.730;2023-08-21T08:55:01;23.90;99.90
27619;DHT22;15039;50.830;4.730;2023-08-21T08:57:28;24.10;99.90
27619;DHT22;15039;50.830;4.730;2023-08-21T08:59:53;24.00;99.90
27619;DHT22;15039;50.830;4.730;2023-08-21T09:02:19;24.10;99.90
27619;DHT22;15039;50.830;4.730;2023-08-21T09:04:45;24.20;99.90
27619;DHT22;15039;50.830;4.730;2023-08-21T09:07:13;24.20;99.90
27619;DHT22;15039;50.830;4.730;2023-08-21T09:09:45;24.20;99.90
27619;DHT22;15039;50.830;4.730;2023-08-21T09:12:13;24.30;99.90
27619;DHT22;15039;50.830;4.730;2023-08-21T09:14:40;24.30;99.90
27619;DHT22;15039;50.830;4.730;2023-08-21T09:17:06;24.30;99.90
27619;DHT22;15039;50.830;4.730;2023-08-21T09:19:32;24.50;99.90
27619;DHT22;15039;50.830;4.730;2023-08-21T09:21:58;24.60;99.90
27619;DHT22;15039;50.830;4.730;2023-08-21T09:24:27;24.70;99.90
27619;DHT22;15039;50.830;4.730;2023-08-21T09:26:52;24.70;99.90
27619;DHT22;15039;50.830;4.730;2023-08-21T09:29:18;24.40;99.90
27619;DHT22;15039;50.830;4.730;2023-08-21T09:31:44;24.40;99.90
27619;DHT22;15039;50.830;4.730;2023-08-21T09:34:11;24.60;99.90
27619;DHT22;15039;50.830;4.730;2023-08-21T09:36:38;24.50;99.90
27619;DHT22;15039;50.830;4.730;2023-08-21T09:39:05;24.70;99.90
27619;DHT22;15039;50.830;4.730;2023-08-21T09:41:32;24.90;99.90
27619;DHT22;15039;50.830;4.730;2023-08-21T09:44:01;25.00;99.90
27619;DHT22;15039;50.830;4.730;2023-08-21T09:46:29;25.10;99.90
27619;DHT22;15039;50.830;4.730;2023-08-21T09:48:55;25.10;99.90
27619;DHT22;15039;50.830;4.730;2023-08-21T09:51:21;24.90;99.90
27619;DHT22;15039;50.830;4.730;2023-08-21T09:53:50;24.80;99.90
27619;DHT22;15039;50.830;4.730;2023-08-21T09:56:19;24.90;99.90
27619;DHT22;15039;50.830;4.730;2023-08-21T09:58:47;25.00;99.90
27619;DHT22;15039;50.830;4.730;2023-08-21T10:01:14;25.20;99.90
27619;DHT22;15039;50.830;4.730;2023-08-21T10:03:41;25.40;99.90
27619;DHT22;15039;50.830;4.730;2023-08-21T10:06:11;25.40;99.90
27619;DHT22;15039;50.830;4.730;2023-08-21T10:08:39;25.20;99.90
27619;DHT22;15039;50.830;4.730;2023-08-21T10:11:07;25.30;99.90
27619;DHT22;15039;50.830;4.730;2023-08-21T10:13:35;25.30;99.90
27619;DHT22;15039;50.830;4.730;2023-08-21T10:16:03;25.20;99.90
27619;DHT22;15039;50.830;4.730;2023-08-21T10:18:32;25.20;99.90
27619;DHT22;15039;50.830;4.730;2023-08-21T10:21:18;25.20;99.90
27619;DHT22;15039;50.830;4.730;2023-08-21T10:23:51;25.30;99.90
27619;DHT22;15039;50.830;4.730;2023-08-21T10:26:20;25.30;99.90
27619;DHT22;15039;50.830;4.730;2023-08-21T10:34:05;25.30;99.90
27619;DHT22;15039;50.830;4.730;2023-08-21T10:39:13;25.70;99.90
27619;DHT22;15039;50.830;4.730;2023-08-21T10:41:39;25.90;99.90
27619;DHT22;15039;50.830;4.730;2023-08-21T10:44:06;25.80;99.90
27619;DHT22;15039;50.830;4.730;2023-08-21T10:46:51;25.90;99.90
27619;DHT22;15039;50.830;4.730;2023-08-21T10:49:17;25.90;99.90
27619;DHT22;15039;50.830;4.730;2023-08-21T10:51:43;26.10;99.90
27619;DHT22;15039;50.830;4.730;2023-08-21T10:54:15;26.30;99.90
27619;DHT22;15039;50.830;4.730;2023-08-21T10:56:42;26.40;99.90
27619;DHT22;15039;50.830;4.730;2023-08-21T10:59:08;26.50;99.90
27619;DHT22;15039;50.830;4.730;2023-08-21T11:01:45;26.50;99.90
27619;DHT22;15039;50.830;4.730;2023-08-21T11:04:12;25.90;99.90
27619;DHT22;15039;50.830;4.730;2023-08-21T11:06:38;25.80;99.90
27619;DHT22;15039;50.830;4.730;2023-08-21T11:09:05;26.00;99.90
27619;DHT22;15039;50.830;4.730;2023-08-21T11:11:31;26.20;99.90
27619;DHT22;15039;50.830;4.730;2023-08-21T11:13:57;26.20;99.90
27619;DHT22;15039;50.830;4.730;2023-08-21T11:16:25;26.10;99.90
27619;DHT22;15039;50.830;4.730;2023-08-21T11:18:52;26.20;99.90
27619;DHT22;15039;50.830;4.730;2023-08-21T11:21:18;26.60;99.90
27619;DHT22;15039;50.830;4.730;2023-08-21T11:23:44;26.80;99.90
27619;DHT22;15039;50.830;4.730;2023-08-21T11:26:14;26.90;99.90
27619;DHT22;15039;50.830;4.730;2023-08-21T11:28:40;27.00;99.90
27619;DHT22;15039;50.830;4.730;2023-08-21T11:31:06;26.90;99.90
27619;DHT22;15039;50.830;4.730;2023-08-21T11:33:33;26.90;99.90
27619;DHT22;15039;50.830;4.730;2023-08-21T11:35:59;26.80;99.90
27619;DHT22;15039;50.830;4.730;2023-08-21T11:38:27;26.70;99.90
27619;DHT22;15039;50.830;4.730;2023-08-21T11:41:01;26.60;99.90
27619;DHT22;15039;50.830;4.730;2023-08-21T11:43:42;26.60;99.90
27619;DHT22;15039;50.830;4.730;2023-08-21T11:46:11;26.70;99.90
27619;DHT22;15039;50.830;4.730;2023-08-21T11:48:38;26.60;99.90
27619;DHT22;15039;50.830;4.730;2023-08-21T11:51:04;26.60;99.90
27619;DHT22;15039;50.830;4.730;2023-08-21T11:53:40;26.60;99.90
27619;DHT22;15039;50.830;4.730;2023-08-21T11:56:17;26.80;99.90
27619;DHT22;15039;50.830;4.730;2023-08-21T11:58:46;27.10;99.90
27619;DHT22;15039;50.830;4.730;2023-08-21T12:01:21;27.30;99.90
27619;DHT22;15039;50.830;4.730;2023-08-21T12:03:48;27.50;99.90
27619;DHT22;15039;50.830;4.730;2023-08-21T12:06:20;27.40;99.90
27619;DHT22;15039;50.830;4.730;2023-08-21T12:08:48;27.30;99.90
27619;DHT22;15039;50.830;4.730;2023-08-21T12:11:13;27.40;99.90
27619;DHT22;15039;50.830;4.730;2023-08-21T12:13:39;27.30;99.90
27619;DHT22;15039;50.830;4.730;2023-08-21T12:16:05;27.50;99.90
27619;DHT22;15039;50.830;4.730;2023-08-21T12:18:32;27.40;99.90
27619;DHT22;15039;50.830;4.730;2023-08-21T12:20:59;27.50;99.90
27619;DHT22;15039;50.830;4.730;2023-08-21T12:23:29;27.50;99.90
27619;DHT22;15039;50.830;4.730;2023-08-21T12:25:55;27.30;99.90
27619;DHT22;15039;50.830;4.730;2023-08-21T12:28:21;27.30;99.90
27619;DHT22;15039;50.830;4.730;2023-08-21T12:30:46;27.10;99.90
27619;DHT22;15039;50.830;4.730;2023-08-21T12:33:15;27.00;99.90
27619;DHT22;15039;50.830;4.730;2023-08-21T12:35:41;27.10;99.90
27619;DHT22;15039;50.830;4.730;2023-08-21T12:38:12;27.10;99.90
27619;DHT22;15039;50.830;4.730;2023-08-21T12:40:38;26.90;99.90
27619;DHT22;15039;50.830;4.730;2023-08-21T12:43:04;27.00;99.90
27619;DHT22;15039;50.830;4.730;2023-08-21T12:45:31;27.10;99.90
27619;DHT22;15039;50.830;4.730;2023-08-21T12:47:57;27.20;99.90
27619;DHT22;15039;50.830;4.730;2023-08-21T12:50:23;27.30;99.90
27619;DHT22;15039;50.830;4.730;2023-08-21T12:52:48;27.50;99.90
27619;DHT22;15039;50.830;4.730;2023-08-21T12:55:14;27.60;99.90
27619;DHT22;15039;50.830;4.730;2023-08-21T12:57:40;27.60;99.90
27619;DHT22;15039;50.830;4.730;2023-08-21T13:00:07;27.70;99.90
27619;DHT22;15039;50.830;4.730;2023-08-21T13:02:32;27.50;99.90
27619;DHT22;15039;50.830;4.730;2023-08-21T13:04:59;27.50;99.90
27619;DHT22;15039;50.830;4.730;2023-08-21T13:07:24;27.50;99.90
27619;DHT22;15039;50.830;4.730;2023-08-21T13:09:50;27.70;99.90
27619;DHT22;15039;50.830;4.730;2023-08-21T13:12:16;27.70;99.90
27619;DHT22;15039;50.830;4.730;2023-08-21T13:14:42;27.80;99.90
27619;DHT22;15039;50.830;4.730;2023-08-21T13:17:10;28.10;99.90
27619;DHT22;15039;50.830;4.730;2023-08-21T13:19:36;28.00;99.90
27619;DHT22;15039;50.830;4.730;2023-08-21T13:22:02;27.90;99.90
27619;DHT22;15039;50.830;4.730;2023-08-21T13:24:28;27.90;99.90
27619;DHT22;15039;50.830;4.730;2023-08-21T13:26:54;27.90;99.90
27619;DHT22;15039;50.830;4.730;2023-08-21T13:29:19;27.80;99.90
27619;DHT22;15039;50.830;4.730;2023-08-21T13:31:45;28.00;99.90
27619;DHT22;15039;50.830;4.730;2023-08-21T13:34:12;28.00;99.90
27619;DHT22;15039;50.830;4.730;2023-08-21T13:36:38;27.90;99.90
27619;DHT22;15039;50.830;4.730;2023-08-21T13:39:03;27.80;99.90
27619;DHT22;15039;50.830;4.730;2023-08-21T13:41:31;27.80;99.90
27619;DHT22;15039;50.830;4.730;2023-08-21T13:43:57;27.70;99.90
27619;DHT22;15039;50.830;4.730;2023-08-21T13:46:22;27.60;99.90
27619;DHT22;15039;50.830;4.730;2023-08-21T13:48:48;27.80;99.90
27619;DHT22;15039;50.830;4.730;2023-08-21T13:51:14;28.00;99.90
27619;DHT22;15039;50.830;4.730;2023-08-21T13:53:40;28.30;99.90
27619;DHT22;15039;50.830;4.730;2023-08-21T13:56:05;28.50;99.90
27619;DHT22;15039;50.830;4.730;2023-08-21T13:58:31;28.60;99.90
27619;DHT22;15039;50.830;4.730;2023-08-21T14:00:57;28.70;99.90
27619;DHT22;15039;50.830;4.730;2023-08-21T14:03:23;28.90;99.90
27619;DHT22;15039;50.830;4.730;2023-08-21T14:05:50;28.90;99.90
27619;DHT22;15039;50.830;4.730;2023-08-21T14:08:16;28.70;99.90
27619;DHT22;15039;50.830;4.730;2023-08-21T14:10:41;28.90;99.90
27619;DHT22;15039;50.830;4.730;2023-08-21T14:13:07;29.30;99.90
27619;DHT22;15039;50.830;4.730;2023-08-21T14:15:34;29.50;99.90
27619;DHT22;15039;50.830;4.730;2023-08-21T14:18:00;29.40;99.90
27619;DHT22;15039;50.830;4.730;2023-08-21T14:20:25;29.30;99.90
27619;DHT22;15039;50.830;4.730;2023-08-21T14:22:51;29.10;99.90
27619;DHT22;15039;50.830;4.730;2023-08-21T14:25:17;28.80;99.90
27619;DHT22;15039;50.830;4.730;2023-08-21T14:27:43;28.60;99.90
27619;DHT22;15039;50.830;4.730;2023-08-21T14:30:09;28.30;99.90
27619;DHT22;15039;50.830;4.730;2023-08-21T14:32:35;28.10;99.90
27619;DHT22;15039;50.830;4.730;2023-08-21T14:35:00;27.90;99.90
27619;DHT22;15039;50.830;4.730;2023-08-21T14:37:26;27.80;99.90
27619;DHT22;15039;50.830;4.730;2023-08-21T14:39:52;27.90;99.90
27619;DHT22;15039;50.830;4.730;2023-08-21T14:42:17;28.00;99.90
27619;DHT22;15039;50.830;4.730;2023-08-21T14:44:44;28.10;99.90
27619;DHT22;15039;50.830;4.730;2023-08-21T14:47:10;28.00;99.90
27619;DHT22;15039;50.830;4.730;2023-08-21T14:49:37;28.00;99.90
27619;DHT22;15039;50.830;4.730;2023-08-21T14:52:02;27.70;99.90
27619;DHT22;15039;50.830;4.730;2023-08-21T14:54:28;27.60;99.90
27619;DHT22;15039;50.830;4.730;2023-08-21T14:56:54;27.50;99.90
27619;DHT22;15039;50.830;4.730;2023-08-21T14:59:20;27.20;99.90
27619;DHT22;15039;50.830;4.730;2023-08-21T15:01:45;27.20;99.90
27619;DHT22;15039;50.830;4.730;2023-08-21T15:04:11;27.20;99.90
27619;DHT22;15039;50.830;4.730;2023-08-21T15:06:38;27.40;99.90
27619;DHT22;15039;50.830;4.730;2023-08-21T15:09:05;27.50;99.90
27619;DHT22;15039;50.830;4.730;2023-08-21T15:11:32;27.60;99.90
27619;DHT22;15039;50.830;4.730;2023-08-21T15:14:00;27.80;99.90
27619;DHT22;15039;50.830;4.730;2023-08-21T15:16:25;27.90;99.90
27619;DHT22;15039;50.830;4.730;2023-08-21T15:18:51;27.90;99.90
27619;DHT22;15039;50.830;4.730;2023-08-21T15:21:18;27.80;99.90
27619;DHT22;15039;50.830;4.730;2023-08-21T15:23:44;27.90;99.90
27619;DHT22;15039;50.830;4.730;2023-08-21T15:26:10;28.00;99.90
27619;DHT22;15039;50.830;4.730;2023-08-21T15:28:36;28.20;99.90
27619;DHT22;15039;50.830;4.730;2023-08-21T15:31:01;28.20;99.90
27619;DHT22;15039;50.830;4.730;2023-08-21T15:33:28;28.00;99.90
27619;DHT22;15039;50.830;4.730;2023-08-21T15:35:54;27.90;99.90
27619;DHT22;15039;50.830;4.730;2023-08-21T15:38:22;27.90;99.90
27619;DHT22;15039;50.830;4.730;2023-08-21T15:40:47;27.70;99.90
27619;DHT22;15039;50.830;4.730;2023-08-21T15:43:13;27.70;99.90
27619;DHT22;15039;50.830;4.730;2023-08-21T15:45:39;27.70;99.90
27619;DHT22;15039;50.830;4.730;2023-08-21T15:48:04;27.70;99.90
27619;DHT22;15039;50.830;4.730;2023-08-21T15:50:31;27.80;99.90
27619;DHT22;15039;50.830;4.730;2023-08-21T15:53:00;28.10;99.90